createdAt,value
2022-09-24T00:00:02.128Z,6.95
2022-09-24T00:06:07.749Z,7.10
2022-09-24T00:12:13.368Z,7.43
2022-09-24T00:18:17.399Z,9.18
2022-09-24T00:24:37.975Z,7.05
2022-09-24T00:30:44.284Z,8.50
2022-09-24T00:36:47.030Z,7.53
2022-09-24T00:42:49.053Z,8.02
2022-09-24T00:48:54.368Z,9.65
2022-09-24T01:01:05.817Z,7.72
2022-09-24T01:07:08.609Z,7.38
2022-09-24T01:13:23.718Z,5.68
2022-09-24T01:19:53.605Z,6.03
2022-09-24T01:26:49.805Z,7.40
2022-09-24T01:32:56.807Z,5.80
2022-09-24T01:38:59.978Z,8.23
2022-09-24T01:45:06.358Z,7.55
2022-09-24T01:51:16.350Z,6.22
2022-09-24T01:57:43.857Z,6.43
2022-09-24T02:03:52.628Z,6.80
2022-09-24T02:09:54.504Z,7.60
2022-09-24T02:16:02.393Z,9.48
2022-09-24T02:28:08.465Z,6.60
2022-09-24T02:34:21.650Z,8.63
2022-09-24T02:40:23.698Z,6.07
2022-09-24T02:46:25.692Z,6.88
2022-09-24T02:52:28.141Z,7.68
2022-09-24T02:58:30.927Z,6.03
2022-09-24T03:04:32.764Z,9.27
2022-09-24T03:10:35.071Z,8.35
2022-09-24T03:16:37.196Z,7.47
2022-09-24T03:22:39.419Z,8.07
2022-09-24T03:28:41.832Z,9.25
2022-09-24T03:34:43.619Z,10.63
2022-09-24T03:40:45.625Z,8.77
2022-09-24T03:46:48.351Z,11.10
2022-09-24T03:52:50.222Z,10.93
2022-09-24T03:58:52.136Z,9.02
2022-09-24T04:04:54.093Z,13.52
2022-09-24T04:10:55.983Z,9.57
2022-09-24T04:16:58.998Z,10.38
2022-09-24T04:23:01.246Z,16.30
2022-09-24T04:29:03.559Z,10.65
2022-09-24T04:35:07.705Z,8.40
2022-09-24T04:41:10.164Z,8.77
2022-09-24T04:47:11.963Z,8.68
2022-09-24T04:53:14.325Z,11.05
2022-09-24T04:59:16.262Z,11.90
2022-09-24T05:05:18.088Z,9.50
2022-09-24T05:11:19.989Z,11.52
2022-09-24T05:17:21.906Z,11.18
2022-09-24T05:23:23.740Z,9.45
2022-09-24T05:29:25.775Z,10.30
2022-09-24T05:35:27.606Z,11.35
2022-09-24T05:41:29.449Z,14.00
2022-09-24T05:47:31.266Z,11.27
2022-09-24T05:53:33.967Z,11.10
2022-09-24T05:59:35.759Z,10.38
2022-09-24T06:05:37.618Z,8.88
2022-09-24T06:11:40.970Z,9.27
2022-09-24T06:17:43.018Z,9.20
2022-09-24T06:23:47.538Z,12.80
2022-09-24T06:29:49.382Z,8.52
2022-09-24T06:35:51.257Z,6.63
2022-09-24T06:41:53.665Z,9.70
2022-09-24T06:48:01.986Z,9.25
2022-09-24T06:54:03.901Z,8.35
2022-09-24T07:00:06.361Z,6.85
2022-09-24T07:06:08.334Z,11.68
2022-09-24T07:12:10.540Z,12.23
2022-09-24T07:18:12.683Z,11.30
2022-09-24T07:24:14.538Z,11.77
2022-09-24T07:30:16.948Z,13.02
2022-09-24T07:36:19.160Z,8.98
2022-09-24T07:42:21.732Z,9.80
2022-09-24T07:48:24.336Z,8.68
2022-09-24T07:54:26.489Z,8.07
2022-09-24T08:00:28.417Z,6.65
2022-09-24T08:06:38.264Z,9.40
2022-09-24T08:12:40.817Z,7.07
2022-09-24T08:18:43.677Z,7.10
2022-09-24T08:24:45.499Z,9.52
2022-09-24T08:30:47.442Z,11.63
2022-09-24T08:36:50.376Z,10.20
2022-09-24T08:43:36.440Z,6.00
2022-09-24T08:49:45.585Z,6.35
2022-09-24T08:55:51.308Z,8.68
2022-09-24T09:02:13.408Z,10.75
2022-09-24T09:09:11.835Z,11.23
2022-09-24T09:15:19.228Z,8.80
2022-09-24T09:21:30.090Z,9.18
2022-09-24T09:27:32.384Z,10.30
2022-09-24T09:34:24.519Z,9.93
2022-09-24T09:40:33.907Z,12.30
2022-09-24T09:46:42.613Z,9.15
2022-09-24T09:52:44.626Z,11.05
2022-09-24T09:58:53.367Z,13.10
2022-09-24T10:04:58.388Z,9.20
2022-09-24T10:11:03.352Z,12.13
2022-09-24T10:17:06.945Z,10.23
2022-09-24T10:23:21.051Z,9.98
2022-09-24T10:29:49.645Z,11.73
2022-09-24T10:36:08.994Z,11.57
2022-09-24T10:42:28.578Z,12.95
2022-09-24T10:48:44.543Z,8.85
2022-09-24T10:55:07.780Z,11.18
2022-09-24T11:01:21.164Z,11.88
2022-09-24T11:07:45.713Z,16.25
2022-09-24T11:14:08.873Z,7.75
2022-09-24T11:20:47.058Z,13.05
2022-09-24T11:26:49.004Z,10.93
2022-09-24T11:33:11.309Z,10.52
2022-09-24T11:39:42.059Z,16.77
2022-09-24T11:46:15.072Z,20.77
2022-09-24T11:52:40.233Z,15.45
2022-09-24T11:58:59.024Z,12.60
2022-09-24T12:05:04.248Z,15.15
2022-09-24T12:11:19.693Z,16.63
2022-09-24T12:17:32.160Z,15.00
2022-09-24T12:23:46.208Z,12.75
2022-09-24T12:30:22.920Z,12.65
2022-09-24T12:37:03.242Z,15.63
2022-09-24T12:43:19.310Z,12.80
2022-09-24T12:49:37.138Z,18.05
2022-09-24T12:55:48.081Z,23.80
2022-09-24T13:02:31.692Z,27.35
2022-09-24T13:15:31.478Z,24.67
2022-09-24T13:21:38.853Z,25.05
2022-09-24T13:29:06.423Z,23.15
2022-09-24T13:34:55.344Z,21.67
2022-09-24T13:41:10.490Z,23.52
2022-09-24T13:47:28.825Z,19.40
2022-09-24T13:53:42.324Z,23.27
2022-09-24T13:59:44.259Z,21.58
2022-09-24T14:05:48.965Z,15.35
2022-09-24T14:11:53.179Z,14.18
2022-09-24T14:17:57.554Z,13.80
2022-09-24T14:24:20.703Z,10.45
2022-09-24T14:30:25.014Z,12.13
2022-09-24T14:36:29.367Z,11.73
2022-09-24T14:42:46.001Z,10.15
2022-09-24T14:48:48.005Z,10.13
2022-09-24T14:55:20.813Z,11.27
2022-09-24T15:01:30.837Z,10.93
2022-09-24T15:07:34.950Z,9.98
2022-09-24T15:13:38.237Z,10.32
2022-09-24T15:19:43.296Z,10.68
2022-09-24T15:25:45.676Z,12.98
2022-09-24T15:31:47.774Z,10.35
2022-09-24T15:37:49.860Z,9.55
2022-09-24T15:43:57.045Z,10.20
2022-09-24T15:49:58.891Z,11.97
2022-09-24T15:56:03.046Z,10.85
2022-09-24T16:02:18.713Z,13.43
2022-09-24T16:08:20.936Z,15.65
2022-09-24T16:14:25.037Z,10.75
2022-09-24T16:20:27.132Z,10.25
2022-09-24T16:26:33.502Z,12.82
2022-09-24T16:32:35.540Z,12.23
2022-09-24T16:38:38.657Z,13.02
2022-09-24T16:44:43.633Z,10.95
2022-09-24T16:50:45.470Z,15.70
2022-09-24T16:56:52.125Z,13.40
2022-09-24T17:02:54.114Z,14.63
2022-09-24T17:09:15.162Z,13.15
2022-09-24T17:15:20.611Z,13.70
2022-09-24T17:21:23.561Z,12.80
2022-09-24T17:27:26.024Z,10.38
2022-09-24T17:33:42.918Z,14.15
2022-09-24T17:39:47.919Z,9.90
2022-09-24T17:46:03.111Z,10.10
2022-09-24T17:52:06.742Z,10.50
2022-09-24T17:58:08.548Z,9.85
2022-09-24T18:04:18.880Z,13.00
2022-09-24T18:10:20.682Z,11.52
2022-09-24T18:16:25.399Z,11.57
2022-09-24T18:29:50.069Z,12.48
2022-09-24T18:35:55.675Z,13.25
2022-09-24T18:41:57.661Z,13.93
2022-09-24T18:47:59.721Z,12.98
2022-09-24T18:54:04.015Z,12.50
2022-09-24T19:00:26.707Z,13.07
2022-09-24T19:06:30.413Z,13.88
2022-09-24T19:12:32.570Z,14.00
2022-09-24T19:18:35.685Z,13.30
2022-09-24T19:24:37.499Z,12.82
2022-09-24T19:30:41.606Z,13.82
2022-09-24T19:36:45.023Z,13.13
2022-09-24T19:42:50.433Z,13.10
2022-09-24T19:48:53.989Z,10.98
2022-09-24T19:54:56.310Z,12.40
2022-09-24T20:01:07.024Z,11.90
2022-09-24T20:07:08.916Z,11.57
2022-09-24T20:13:13.101Z,13.00
2022-09-24T20:19:15.386Z,13.90
2022-09-24T20:25:17.320Z,16.42
2022-09-24T20:31:21.006Z,16.40
2022-09-24T20:37:23.077Z,15.35
2022-09-24T20:43:25.640Z,11.23
2022-09-24T20:49:28.101Z,12.80
2022-09-24T20:55:30.227Z,11.27
2022-09-24T21:01:32.154Z,11.70
2022-09-24T21:07:35.375Z,10.32
2022-09-24T21:13:41.961Z,12.73
2022-09-24T21:19:43.777Z,13.70
2022-09-24T21:25:54.693Z,12.55
2022-09-24T21:31:56.788Z,12.35
2022-09-24T21:37:58.542Z,12.60
2022-09-24T21:44:00.907Z,12.40
2022-09-24T21:50:02.722Z,12.75
2022-09-24T21:56:06.352Z,13.05
2022-09-24T22:02:10.068Z,13.18
2022-09-24T22:08:14.294Z,19.08
2022-09-24T22:14:16.137Z,14.40
2022-09-24T22:20:17.963Z,11.32
2022-09-24T22:26:19.877Z,12.75
2022-09-24T22:32:21.792Z,12.68
2022-09-24T22:38:23.622Z,20.52
2022-09-24T22:44:25.519Z,13.57
2022-09-24T22:50:27.364Z,18.15
2022-09-24T22:56:30.171Z,18.27
2022-09-24T23:02:33.741Z,16.73
2022-09-24T23:08:36.860Z,19.45
2022-09-24T23:14:38.710Z,16.73
2022-09-24T23:20:40.508Z,16.73
2022-09-24T23:26:42.737Z,18.45
2022-09-24T23:32:44.660Z,17.90
2022-09-24T23:38:47.334Z,17.42
2022-09-24T23:44:49.480Z,19.02
2022-09-24T23:50:51.715Z,22.35
2022-09-24T23:56:53.577Z,21.10
